Time,TemperatureF,DewpointF,PressureIn,WindDirection,WindDirectionDegrees,WindSpeedMPH,WindSpeedGustMPH,Humidity,HourlyPrecipIn,Conditions,Clouds,dailyrainin,SoftwareType,DateUTC
2013-04-19 00:00:00,52.3,48.9,30.10,SSW,196,6.0,9.0,88,0.00,,,0.00,VWS V14.01,2013-04-19 04:00:00,
2013-04-19 00:01:00,52.2,48.8,30.10,SE,145,5.0,9.0,88,0.00,,,0.00,VWS V14.01,2013-04-19 04:01:00,
2013-04-19 00:06:00,52.4,49.0,30.09,SSE,149,7.0,9.0,88,0.00,,,0.00,VWS V14.01,2013-04-19 04:06:00,
2013-04-19 00:11:00,52.5,49.4,30.09,ESE,113,5.0,9.0,89,0.00,,,0.00,VWS V14.01,2013-04-19 04:11:00,
2013-04-19 00:16:00,52.6,49.5,30.09,SSW,197,7.0,11.0,89,0.00,,,0.00,VWS V14.01,2013-04-19 04:16:00,
2013-04-19 00:21:00,52.7,49.5,30.09,SE,138,3.0,11.0,89,0.00,,,0.00,VWS V14.01,2013-04-19 04:21:00,
2013-04-19 00:26:00,52.8,50.0,30.09,SW,233,3.0,11.0,90,0.00,,,0.00,VWS V14.01,2013-04-19 04:26:00,
2013-04-19 00:30:00,52.9,50.0,30.09,WSW,243,4.0,11.0,90,0.00,,,0.00,VWS V14.01,2013-04-19 04:30:00,
2013-04-19 00:31:00,52.9,50.0,30.09,ESE,114,5.0,11.0,90,0.00,,,0.00,VWS V14.01,2013-04-19 04:31:00,
2013-04-19 00:36:00,53.0,50.2,30.09,South,173,4.0,9.0,90,0.00,,,0.00,VWS V14.01,2013-04-19 04:36:00,
2013-04-19 00:41:00,53.1,50.2,30.09,SSW,212,5.0,9.0,90,0.00,,,0.00,VWS V14.01,2013-04-19 04:41:00,
2013-04-19 00:46:00,53.2,50.7,30.08,SE,141,5.0,9.0,91,0.00,,,0.00,VWS V14.01,2013-04-19 04:46:00,
2013-04-19 00:51:00,53.3,50.7,30.08,SSE,150,2.0,9.0,91,0.00,,,0.00,VWS V14.01,2013-04-19 04:51:00,
2013-04-19 00:56:00,53.3,50.7,30.08,WSW,238,3.0,9.0,91,0.00,,,0.00,VWS V14.01,2013-04-19 04:56:00,
2013-04-19 01:00:00,53.5,50.9,30.08,SSE,165,5.0,11.0,91,0.00,,,0.00,VWS V14.01,2013-04-19 05:00:00,
2013-04-19 01:01:00,53.5,50.9,30.08,South,181,2.0,9.0,91,0.00,,,0.00,VWS V14.01,2013-04-19 05:01:00,
2013-04-19 01:06:00,53.6,51.3,30.08,South,171,3.0,8.0,92,0.00,,,0.00,VWS V14.01,2013-04-19 05:06:00,
2013-04-19 01:11:00,53.7,51.4,30.07,South,189,3.0,8.0,92,0.00,,,0.00,VWS V14.01,2013-04-19 05:11:00,
2013-04-19 01:16:00,53.9,51.6,30.07,SE,137,5.0,8.0,92,0.00,,,0.00,VWS V14.01,2013-04-19 05:16:00,
2013-04-19 01:21:00,54.0,52.0,30.07,SSE,158,2.0,8.0,93,0.00,,,0.00,VWS V14.01,2013-04-19 05:21:00,
2013-04-19 01:26:00,54.0,52.0,30.06,South,180,2.0,8.0,93,0.00,,,0.00,VWS V14.01,2013-04-19 05:26:00,
2013-04-19 01:30:00,54.2,52.2,30.06,SSE,148,4.0,8.0,93,0.00,,,0.00,VWS V14.01,2013-04-19 05:30:00,
2013-04-19 01:31:00,54.2,52.2,30.06,SSW,196,4.0,8.0,93,0.00,,,0.00,VWS V14.01,2013-04-19 05:31:00,
2013-04-19 01:36:00,54.3,52.3,30.06,SSW,207,2.0,7.0,93,0.00,,,0.00,VWS V14.01,2013-04-19 05:36:00,
2013-04-19 01:41:00,54.4,52.7,30.06,SW,229,6.0,7.0,94,0.00,,,0.00,VWS V14.01,2013-04-19 05:41:00,
2013-04-19 01:46:00,54.7,53.0,30.05,South,178,3.0,8.0,94,0.00,,,0.00,VWS V14.01,2013-04-19 05:46:00,
2013-04-19 01:51:00,55.0,53.3,30.05,SSE,167,4.0,9.0,94,0.00,,,0.00,VWS V14.01,2013-04-19 05:51:00,
2013-04-19 01:56:00,55.1,53.4,30.05,SSE,152,3.0,10.0,94,0.00,,,0.00,VWS V14.01,2013-04-19 05:56:00,
2013-04-19 02:00:00,55.4,54.0,30.04,SSE,161,6.0,10.0,95,0.00,,,0.00,VWS V14.01,2013-04-19 06:00:00,
2013-04-19 02:01:00,55.3,53.6,30.04,SSE,164,4.0,10.0,94,0.00,,,0.00,VWS V14.01,2013-04-19 06:01:00,
2013-04-19 02:06:00,55.5,54.1,30.04,SSW,193,4.0,9.0,95,0.00,,,0.00,VWS V14.01,2013-04-19 06:06:00,
2013-04-19 02:11:00,55.6,54.2,30.03,SW,225,5.0,12.0,95,0.00,,,0.00,VWS V14.01,2013-04-19 06:11:00,
2013-04-19 02:16:00,55.6,54.2,30.03,SW,214,5.0,12.0,95,0.00,,,0.00,VWS V14.01,2013-04-19 06:16:00,
2013-04-19 02:21:00,55.7,54.3,30.03,South,182,8.0,12.0,95,0.00,,,0.00,VWS V14.01,2013-04-19 06:21:00,
2013-04-19 02:26:00,55.7,54.3,30.03,SW,233,5.0,12.0,95,0.00,,,0.00,VWS V14.01,2013-04-19 06:26:00,
2013-04-19 02:30:00,55.7,54.3,30.03,SE,146,4.0,14.0,95,0.01,,,0.01,VWS V14.01,2013-04-19 06:30:00,
2013-04-19 02:31:00,55.7,54.3,30.03,South,173,5.0,14.0,95,0.01,,,0.01,VWS V14.01,2013-04-19 06:31:00,
2013-04-19 02:36:00,55.5,54.1,30.03,South,185,6.0,10.0,95,0.01,,,0.01,VWS V14.01,2013-04-19 06:36:00,
2013-04-19 02:41:00,55.5,54.1,30.03,South,188,6.0,10.0,95,0.01,,,0.01,VWS V14.01,2013-04-19 06:41:00,
2013-04-19 02:46:00,55.4,54.0,30.03,ESE,121,4.0,10.0,95,0.01,,,0.01,VWS V14.01,2013-04-19 06:46:00,
2013-04-19 02:51:00,55.4,54.0,30.03,SW,218,6.0,10.0,95,0.01,,,0.01,VWS V14.01,2013-04-19 06:51:00,
2013-04-19 02:56:00,55.2,53.8,30.03,South,189,4.0,12.0,95,0.01,,,0.01,VWS V14.01,2013-04-19 06:56:00,
2013-04-19 03:00:00,55.1,53.7,30.02,South,185,7.0,12.0,95,0.01,,,0.01,VWS V14.01,2013-04-19 07:00:00,
2013-04-19 03:01:00,55.1,53.7,30.03,SW,232,6.0,12.0,95,0.01,,,0.01,VWS V14.01,2013-04-19 07:01:00,
2013-04-19 03:06:00,55.1,53.7,30.02,SSW,196,7.0,11.0,95,0.01,,,0.01,VWS V14.01,2013-04-19 07:06:00,
2013-04-19 03:11:00,55.1,53.7,30.02,South,177,2.0,11.0,95,0.01,,,0.01,VWS V14.01,2013-04-19 07:11:00,
2013-04-19 03:16:00,55.2,53.8,30.01,SSW,196,4.0,11.0,95,0.01,,,0.01,VWS V14.01,2013-04-19 07:16:00,
2013-04-19 03:21:00,55.3,54.2,30.01,SSW,204,4.0,11.0,96,0.01,,,0.01,VWS V14.01,2013-04-19 07:21:00,
2013-04-19 03:26:00,55.5,54.4,30.01,South,177,3.0,11.0,96,0.01,,,0.01,VWS V14.01,2013-04-19 07:26:00,
2013-04-19 03:30:00,55.6,54.5,30.01,SE,143,5.0,11.0,96,0.01,,,0.01,VWS V14.01,2013-04-19 07:30:00,
2013-04-19 03:31:00,55.6,54.5,30.01,South,186,2.0,11.0,96,0.01,,,0.01,VWS V14.01,2013-04-19 07:31:00,
2013-04-19 03:36:00,55.7,54.6,30.00,SE,142,3.0,7.0,96,0.00,,,0.01,VWS V14.01,2013-04-19 07:36:00,
2013-04-19 03:41:00,55.8,54.7,30.00,ESE,114,7.0,9.0,96,0.00,,,0.01,VWS V14.01,2013-04-19 07:41:00,
2013-04-19 03:46:00,55.8,54.7,30.00,SSE,161,5.0,9.0,96,0.00,,,0.01,VWS V14.01,2013-04-19 07:46:00,
2013-04-19 03:51:00,55.9,54.8,30.00,South,188,5.0,13.0,96,0.00,,,0.01,VWS V14.01,2013-04-19 07:51:00,
2013-04-19 03:56:00,56.0,54.9,30.00,South,185,6.0,13.0,96,0.00,,,0.01,VWS V14.01,2013-04-19 07:56:00,
2013-04-19 04:00:00,56.2,55.1,29.99,SSE,155,3.0,13.0,96,0.00,,,0.01,VWS V14.01,2013-04-19 08:00:00,
2013-04-19 04:01:00,56.1,55.0,29.99,South,188,6.0,13.0,96,0.00,,,0.01,VWS V14.01,2013-04-19 08:01:00,
2013-04-19 04:06:00,56.2,54.8,29.99,ESE,103,9.0,12.0,95,0.00,,,0.01,VWS V14.01,2013-04-19 08:06:00,
2013-04-19 04:11:00,56.3,54.9,29.99,SE,125,4.0,13.0,95,0.00,,,0.01,VWS V14.01,2013-04-19 08:11:00,
2013-04-19 04:16:00,56.3,54.9,29.99,SSW,209,7.0,13.0,95,0.00,,,0.01,VWS V14.01,2013-04-19 08:16:00,
2013-04-19 04:21:00,56.2,54.8,29.99,SW,216,6.0,14.0,95,0.00,,,0.01,VWS V14.01,2013-04-19 08:21:00,
2013-04-19 04:26:00,56.1,54.7,30.00,SSW,207,4.0,14.0,95,0.00,,,0.01,VWS V14.01,2013-04-19 08:26:00,
2013-04-19 04:30:00,55.9,54.5,30.00,WSW,240,6.0,14.0,95,0.00,,,0.01,VWS V14.01,2013-04-19 08:30:00,
2013-04-19 04:31:00,56.0,54.6,30.00,South,186,5.0,14.0,95,0.00,,,0.01,VWS V14.01,2013-04-19 08:31:00,
2013-04-19 04:36:00,55.8,54.4,30.00,SSE,161,2.0,11.0,95,0.00,,,0.01,VWS V14.01,2013-04-19 08:36:00,
2013-04-19 04:41:00,55.6,54.2,29.99,SW,225,3.0,11.0,95,0.00,,,0.01,VWS V14.01,2013-04-19 08:41:00,
2013-04-19 04:46:00,55.5,54.1,29.99,SSW,195,4.0,11.0,95,0.00,,,0.01,VWS V14.01,2013-04-19 08:46:00,
2013-04-19 04:51:00,55.3,53.9,29.99,SW,219,2.0,11.0,95,0.00,,,0.01,VWS V14.01,2013-04-19 08:51:00,
2013-04-19 04:56:00,55.1,53.7,29.99,WSW,252,2.0,11.0,95,0.00,,,0.01,VWS V14.01,2013-04-19 08:56:00,
2013-04-19 05:00:00,54.9,53.5,29.99,SW,234,3.0,11.0,95,0.00,,,0.01,VWS V14.01,2013-04-19 09:00:00,
2013-04-19 05:01:00,54.9,53.5,29.99,SW,220,4.0,11.0,95,0.00,,,0.01,VWS V14.01,2013-04-19 09:01:00,
2013-04-19 05:06:00,54.8,53.4,29.99,South,174,1.0,7.0,95,0.00,,,0.01,VWS V14.01,2013-04-19 09:06:00,
2013-04-19 05:11:00,54.6,53.2,29.99,SSE,148,3.0,7.0,95,0.00,,,0.01,VWS V14.01,2013-04-19 09:11:00,
2013-04-19 05:16:00,54.5,53.1,29.99,WNW,284,2.0,9.0,95,0.00,,,0.01,VWS V14.01,2013-04-19 09:16:00,
2013-04-19 05:21:00,54.6,53.5,29.99,WSW,254,2.0,9.0,96,0.00,,,0.01,VWS V14.01,2013-04-19 09:21:00,
2013-04-19 05:26:00,54.6,53.5,29.99,SSW,198,1.0,9.0,96,0.00,,,0.01,VWS V14.01,2013-04-19 09:26:00,
2013-04-19 05:30:00,54.4,53.0,29.98,SSW,208,3.0,9.0,95,0.00,,,0.01,VWS V14.01,2013-04-19 09:30:00,
2013-04-19 05:31:00,54.4,53.0,29.98,SSW,212,0.0,9.0,95,0.00,,,0.01,VWS V14.01,2013-04-19 09:31:00,
2013-04-19 05:36:00,54.2,53.1,29.98,WSW,237,2.0,15.0,96,0.00,,,0.01,VWS V14.01,2013-04-19 09:36:00,
2013-04-19 05:41:00,54.0,52.6,29.98,SW,230,3.0,15.0,95,0.00,,,0.01,VWS V14.01,2013-04-19 09:41:00,
2013-04-19 05:46:00,53.7,52.3,29.98,SW,230,3.0,15.0,95,0.00,,,0.01,VWS V14.01,2013-04-19 09:46:00,
2013-04-19 05:51:00,53.7,52.6,29.98,SSW,194,1.0,15.0,96,0.00,,,0.01,VWS V14.01,2013-04-19 09:51:00,
2013-04-19 05:56:00,53.8,52.7,29.98,West,269,4.0,15.0,96,0.00,,,0.01,VWS V14.01,2013-04-19 09:56:00,
2013-04-19 06:00:00,54.2,53.1,29.98,West,268,6.0,15.0,96,0.00,,,0.01,VWS V14.01,2013-04-19 10:00:00,
2013-04-19 06:01:00,54.2,53.1,29.98,SSW,194,4.0,15.0,96,0.00,,,0.01,VWS V14.01,2013-04-19 10:01:00,
2013-04-19 06:06:00,54.6,53.8,29.99,SW,230,3.0,6.0,97,0.00,,,0.01,VWS V14.01,2013-04-19 10:06:00,
2013-04-19 06:11:00,54.8,53.7,29.99,SW,234,4.0,13.0,96,0.00,,,0.01,VWS V14.01,2013-04-19 10:11:00,
2013-04-19 06:16:00,54.9,54.1,29.99,SSW,208,1.0,13.0,97,0.00,,,0.01,VWS V14.01,2013-04-19 10:16:00,
2013-04-19 06:21:00,55.1,54.3,29.99,SSW,204,5.0,13.0,97,0.00,,,0.01,VWS V14.01,2013-04-19 10:21:00,
2013-04-19 06:26:00,55.3,54.5,29.99,West,270,1.0,13.0,97,0.00,,,0.01,VWS V14.01,2013-04-19 10:26:00,
2013-04-19 06:30:00,55.5,54.4,29.98,South,187,3.0,14.0,96,0.00,,,0.01,VWS V14.01,2013-04-19 10:30:00,
2013-04-19 06:31:00,55.5,54.4,29.98,SSW,201,7.0,13.0,96,0.00,,,0.01,VWS V14.01,2013-04-19 10:31:00,
2013-04-19 06:36:00,55.7,54.9,29.98,South,190,7.0,13.0,97,0.00,,,0.01,VWS V14.01,2013-04-19 10:36:00,
2013-04-19 06:41:00,55.8,55.0,29.98,SE,142,3.0,13.0,97,0.00,,,0.01,VWS V14.01,2013-04-19 10:41:00,
2013-04-19 06:46:00,56.2,55.4,29.97,South,184,12.0,15.0,97,0.00,,,0.01,VWS V14.01,2013-04-19 10:46:00,
2013-04-19 06:51:00,56.1,55.3,29.97,SSE,163,9.0,15.0,97,0.00,,,0.01,VWS V14.01,2013-04-19 10:51:00,
2013-04-19 06:56:00,56.1,55.0,29.97,South,184,6.0,15.0,96,0.00,,,0.01,VWS V14.01,2013-04-19 10:56:00,
2013-04-19 07:00:00,56.3,55.5,29.97,SSW,204,5.0,15.0,97,0.00,,,0.01,VWS V14.01,2013-04-19 11:00:00,
2013-04-19 07:01:00,56.3,55.5,29.97,SSW,198,5.0,15.0,97,0.00,,,0.01,VWS V14.01,2013-04-19 11:01:00,
2013-04-19 07:06:00,56.6,55.8,29.97,SSW,201,3.0,14.0,97,0.00,,,0.01,VWS V14.01,2013-04-19 11:06:00,
2013-04-19 07:11:00,56.6,55.8,29.97,South,190,3.0,18.0,97,0.00,,,0.01,VWS V14.01,2013-04-19 11:11:00,
2013-04-19 07:16:00,56.8,56.0,29.97,South,176,3.0,18.0,97,0.00,,,0.01,VWS V14.01,2013-04-19 11:16:00,
2013-04-19 07:21:00,56.8,56.0,29.97,SSW,200,9.0,18.0,97,0.00,,,0.01,VWS V14.01,2013-04-19 11:21:00,
2013-04-19 07:26:00,56.7,55.9,29.97,SSW,203,2.0,18.0,97,0.00,,,0.01,VWS V14.01,2013-04-19 11:26:00,
2013-04-19 07:30:00,56.8,56.0,29.97,SW,225,3.0,18.0,97,0.00,,,0.01,VWS V14.01,2013-04-19 11:30:00,
2013-04-19 07:31:00,56.8,56.0,29.97,SW,222,3.0,18.0,97,0.00,,,0.01,VWS V14.01,2013-04-19 11:31:00,
2013-04-19 07:36:00,56.7,55.9,29.97,West,261,1.0,11.0,97,0.00,,,0.01,VWS V14.01,2013-04-19 11:36:00,
2013-04-19 07:41:00,56.4,55.6,29.97,SSW,210,12.0,12.0,97,0.00,,,0.01,VWS V14.01,2013-04-19 11:41:00,
2013-04-19 07:46:00,56.1,55.3,29.97,South,186,4.0,13.0,97,0.00,,,0.01,VWS V14.01,2013-04-19 11:46:00,
2013-04-19 07:51:00,55.8,55.0,29.97,SSW,210,4.0,13.0,97,0.00,,,0.01,VWS V14.01,2013-04-19 11:51:00,
2013-04-19 07:56:00,55.4,54.6,29.97,SW,231,4.0,13.0,97,0.00,,,0.01,VWS V14.01,2013-04-19 11:56:00,
2013-04-19 08:00:00,55.2,54.4,29.97,SSW,207,5.0,13.0,97,0.00,,,0.01,VWS V14.01,2013-04-19 12:00:00,
2013-04-19 08:01:00,55.2,54.4,29.97,SE,129,3.0,13.0,97,0.00,,,0.01,VWS V14.01,2013-04-19 12:01:00,
2013-04-19 08:06:00,55.1,54.3,29.97,WSW,240,5.0,13.0,97,0.00,,,0.01,VWS V14.01,2013-04-19 12:06:00,
2013-04-19 08:11:00,55.0,54.2,29.97,West,267,2.0,13.0,97,0.00,,,0.01,VWS V14.01,2013-04-19 12:11:00,
2013-04-19 08:17:00,54.9,54.1,29.97,WSW,252,6.0,13.0,97,0.00,,,0.01,VWS V14.01,2013-04-19 12:17:00,
2013-04-19 08:22:00,54.8,54.0,29.97,WSW,242,5.0,13.0,97,0.00,,,0.01,VWS V14.01,2013-04-19 12:22:00,
2013-04-19 08:27:00,54.9,54.1,29.96,South,188,1.0,13.0,97,0.00,,,0.01,VWS V14.01,2013-04-19 12:27:00,
2013-04-19 08:30:00,54.8,54.0,29.96,WSW,250,3.0,13.0,97,0.00,,,0.01,VWS V14.01,2013-04-19 12:30:00,
2013-04-19 08:32:00,54.9,54.1,29.96,SW,232,1.0,13.0,97,0.00,,,0.01,VWS V14.01,2013-04-19 12:32:00,
2013-04-19 08:37:00,54.7,53.9,29.96,SSW,205,2.0,8.0,97,0.00,,,0.01,VWS V14.01,2013-04-19 12:37:00,
2013-04-19 08:42:00,54.5,53.7,29.96,SSW,194,1.0,11.0,97,0.00,,,0.01,VWS V14.01,2013-04-19 12:42:00,
2013-04-19 08:47:00,54.4,53.6,29.96,SSW,205,1.0,11.0,97,0.00,,,0.01,VWS V14.01,2013-04-19 12:47:00,
2013-04-19 08:52:00,54.4,53.6,29.96,SSW,202,3.0,11.0,97,0.00,,,0.01,VWS V14.01,2013-04-19 12:52:00,
2013-04-19 08:57:00,54.4,53.6,29.96,SE,144,3.0,11.0,97,0.00,,,0.01,VWS V14.01,2013-04-19 12:57:00,
2013-04-19 09:00:00,54.4,53.6,29.96,SSW,198,1.0,11.0,97,0.00,,,0.01,VWS V14.01,2013-04-19 13:00:00,
2013-04-19 09:02:00,54.4,53.6,29.96,SSW,198,0.0,11.0,97,0.00,,,0.01,VWS V14.01,2013-04-19 13:02:00,
2013-04-19 09:07:00,54.6,54.0,29.96,WSW,246,3.0,4.0,98,0.00,,,0.01,VWS V14.01,2013-04-19 13:07:00,
2013-04-19 09:12:00,54.6,53.8,29.96,SW,229,3.0,7.0,97,0.00,,,0.01,VWS V14.01,2013-04-19 13:12:00,
2013-04-19 09:16:00,54.6,54.0,29.96,WSW,247,6.0,9.0,98,0.00,,,0.01,VWS V14.01,2013-04-19 13:16:00,
2013-04-19 09:21:00,54.5,53.7,29.96,SSW,211,2.0,11.0,97,0.00,,,0.01,VWS V14.01,2013-04-19 13:21:00,
2013-04-19 09:26:00,54.5,53.7,29.96,WNW,290,2.0,11.0,97,0.00,,,0.01,VWS V14.01,2013-04-19 13:26:00,
2013-04-19 09:30:00,54.6,54.0,29.96,WSW,253,2.0,12.0,98,0.00,,,0.01,VWS V14.01,2013-04-19 13:30:00,
2013-04-19 09:31:00,54.6,54.0,29.96,SSW,198,3.0,12.0,98,0.00,,,0.01,VWS V14.01,2013-04-19 13:31:00,
2013-04-19 09:36:00,54.5,53.7,29.96,WSW,250,2.0,11.0,97,0.00,,,0.01,VWS V14.01,2013-04-19 13:36:00,
2013-04-19 09:41:00,54.5,53.7,29.96,West,267,3.0,11.0,97,0.00,,,0.01,VWS V14.01,2013-04-19 13:41:00,
2013-04-19 09:46:00,54.5,54.0,29.96,WSW,250,2.0,11.0,98,0.00,,,0.01,VWS V14.01,2013-04-19 13:46:00,
2013-04-19 09:51:00,54.1,53.3,29.96,WSW,255,6.0,11.0,97,0.00,,,0.01,VWS V14.01,2013-04-19 13:51:00,
2013-04-19 09:56:00,54.0,53.5,29.96,WSW,254,5.0,11.0,98,0.00,,,0.01,VWS V14.01,2013-04-19 13:56:00,
2013-04-19 10:00:00,54.1,53.5,29.95,SSW,200,5.0,11.0,98,0.00,,,0.01,VWS V14.01,2013-04-19 14:00:00,
2013-04-19 10:01:00,54.0,53.5,29.95,SW,232,5.0,11.0,98,0.00,,,0.01,VWS V14.01,2013-04-19 14:01:00,
2013-04-19 10:06:00,54.3,53.8,29.95,SSW,203,5.0,9.0,98,0.00,,,0.01,VWS V14.01,2013-04-19 14:06:00,
2013-04-19 10:12:00,54.8,54.2,29.95,SSW,198,2.0,13.0,98,0.00,,,0.01,VWS V14.01,2013-04-19 14:12:00,
2013-04-19 10:17:00,55.2,54.7,29.95,WSW,239,2.0,13.0,98,0.00,,,0.01,VWS V14.01,2013-04-19 14:17:00,
2013-04-19 10:22:00,55.4,54.8,29.95,South,173,3.0,13.0,98,0.00,,,0.01,VWS V14.01,2013-04-19 14:22:00,
2013-04-19 10:27:00,55.4,54.8,29.95,SSW,207,4.0,13.0,98,0.00,,,0.01,VWS V14.01,2013-04-19 14:27:00,
2013-04-19 10:30:00,55.4,54.8,29.95,North,5,1.0,13.0,98,0.00,,,0.01,VWS V14.01,2013-04-19 14:30:00,
2013-04-19 10:32:00,55.4,54.8,29.95,WSW,238,5.0,13.0,98,0.00,,,0.01,VWS V14.01,2013-04-19 14:32:00,
2013-04-19 10:37:00,55.5,55.0,29.95,SW,215,2.0,13.0,98,0.00,,,0.01,VWS V14.01,2013-04-19 14:37:00,
2013-04-19 10:42:00,55.7,55.2,29.94,SW,232,3.0,13.0,98,0.00,,,0.01,VWS V14.01,2013-04-19 14:42:00,
2013-04-19 10:47:00,55.8,55.2,29.94,WSW,240,3.0,13.0,98,0.00,,,0.01,VWS V14.01,2013-04-19 14:47:00,
2013-04-19 10:52:00,55.9,55.3,29.94,SW,214,2.0,13.0,98,0.00,,,0.01,VWS V14.01,2013-04-19 14:52:00,
2013-04-19 10:57:00,55.7,54.9,29.94,WSW,247,6.0,13.0,97,0.00,,,0.01,VWS V14.01,2013-04-19 14:57:00,
2013-04-19 11:00:00,55.6,54.8,29.94,SW,227,4.0,13.0,97,0.00,,,0.01,VWS V14.01,2013-04-19 15:00:00,
2013-04-19 11:01:00,55.6,54.8,29.94,SSW,202,3.0,13.0,97,0.00,,,0.01,VWS V14.01,2013-04-19 15:01:00,
2013-04-19 11:06:00,55.7,54.9,29.94,SW,229,3.0,10.0,97,0.00,,,0.01,VWS V14.01,2013-04-19 15:06:00,
2013-04-19 11:12:00,55.9,55.1,29.93,SW,227,1.0,10.0,97,0.00,,,0.01,VWS V14.01,2013-04-19 15:12:00,
2013-04-19 11:17:00,56.2,55.4,29.93,SSW,210,6.0,10.0,97,0.00,,,0.01,VWS V14.01,2013-04-19 15:17:00,
2013-04-19 11:22:00,56.2,55.4,29.93,WSW,239,3.0,10.0,97,0.00,,,0.01,VWS V14.01,2013-04-19 15:22:00,
2013-04-19 11:27:00,56.3,55.5,29.93,West,281,6.0,10.0,97,0.00,,,0.01,VWS V14.01,2013-04-19 15:27:00,
2013-04-19 11:30:00,56.4,55.6,29.93,West,265,2.0,10.0,97,0.00,,,0.01,VWS V14.01,2013-04-19 15:30:00,
2013-04-19 11:32:00,56.4,55.6,29.93,SW,222,4.0,10.0,97,0.00,,,0.01,VWS V14.01,2013-04-19 15:32:00,
2013-04-19 11:37:00,56.5,55.4,29.93,SW,215,2.0,12.0,96,0.00,,,0.01,VWS V14.01,2013-04-19 15:37:00,
2013-04-19 11:42:00,56.4,55.3,29.92,WSW,244,3.0,12.0,96,0.00,,,0.01,VWS V14.01,2013-04-19 15:42:00,
2013-04-19 11:47:00,56.6,55.5,29.92,South,190,4.0,12.0,96,0.00,,,0.01,VWS V14.01,2013-04-19 15:47:00,
2013-04-19 11:52:00,56.7,55.6,29.92,West,262,2.0,12.0,96,0.00,,,0.01,VWS V14.01,2013-04-19 15:52:00,
2013-04-19 11:57:00,56.6,55.5,29.92,West,261,1.0,12.0,96,0.00,,,0.01,VWS V14.01,2013-04-19 15:57:00,
2013-04-19 12:00:00,56.8,55.7,29.92,West,266,4.0,12.0,96,0.00,,,0.01,VWS V14.01,2013-04-19 16:00:00,
2013-04-19 12:02:00,56.8,55.7,29.92,WSW,257,0.0,12.0,96,0.00,,,0.01,VWS V14.01,2013-04-19 16:02:00,
2013-04-19 12:07:00,56.8,55.4,29.92,WSW,242,5.0,7.0,95,0.00,,,0.01,VWS V14.01,2013-04-19 16:07:00,
2013-04-19 12:12:00,56.7,55.3,29.92,West,280,2.0,7.0,95,0.00,,,0.01,VWS V14.01,2013-04-19 16:12:00,
2013-04-19 12:17:00,56.6,55.2,29.91,SW,232,3.0,8.0,95,0.00,,,0.01,VWS V14.01,2013-04-19 16:17:00,
2013-04-19 12:22:00,56.5,55.1,29.91,SW,232,3.0,11.0,95,0.00,,,0.01,VWS V14.01,2013-04-19 16:22:00,
2013-04-19 12:27:00,56.7,55.3,29.91,West,261,2.0,11.0,95,0.00,,,0.01,VWS V14.01,2013-04-19 16:27:00,
2013-04-19 12:30:00,56.8,55.4,29.91,SW,236,5.0,11.0,95,0.00,,,0.01,VWS V14.01,2013-04-19 16:30:00,
2013-04-19 12:32:00,56.8,55.4,29.91,WSW,251,3.0,11.0,95,0.00,,,0.01,VWS V14.01,2013-04-19 16:32:00,
2013-04-19 12:37:00,57.3,55.9,29.90,WSW,242,2.0,10.0,95,0.00,,,0.01,VWS V14.01,2013-04-19 16:37:00,
2013-04-19 12:42:00,58.0,56.6,29.90,West,262,4.0,10.0,95,0.00,,,0.01,VWS V14.01,2013-04-19 16:42:00,
2013-04-19 12:47:00,58.6,56.9,29.90,WSW,255,1.0,10.0,94,0.00,,,0.01,VWS V14.01,2013-04-19 16:47:00,
2013-04-19 12:52:00,58.5,56.5,29.90,South,179,2.0,11.0,93,0.00,,,0.01,VWS V14.01,2013-04-19 16:52:00,
2013-04-19 12:57:00,58.4,56.4,29.90,South,184,1.0,11.0,93,0.00,,,0.01,VWS V14.01,2013-04-19 16:57:00,
2013-04-19 13:00:00,58.6,56.6,29.89,WSW,243,6.0,11.0,93,0.00,,,0.01,VWS V14.01,2013-04-19 17:00:00,
2013-04-19 13:02:00,58.5,56.5,29.90,SW,234,4.0,11.0,93,0.00,,,0.01,VWS V14.01,2013-04-19 17:02:00,
2013-04-19 13:07:00,58.7,56.4,29.89,SSW,207,3.0,5.0,92,0.00,,,0.01,VWS V14.01,2013-04-19 17:07:00,
2013-04-19 13:12:00,58.9,56.6,29.89,SSW,202,4.0,10.0,92,0.00,,,0.01,VWS V14.01,2013-04-19 17:12:00,
2013-04-19 13:17:00,59.4,57.4,29.89,SSW,209,4.0,10.0,93,0.00,,,0.01,VWS V14.01,2013-04-19 17:17:00,
2013-04-19 13:22:00,60.0,58.0,29.89,WNW,286,2.0,10.0,93,0.00,,,0.01,VWS V14.01,2013-04-19 17:22:00,
2013-04-19 13:27:00,60.4,58.1,29.89,West,267,3.0,10.0,92,0.00,,,0.01,VWS V14.01,2013-04-19 17:27:00,
2013-04-19 13:30:00,59.6,56.7,29.89,WSW,243,7.0,12.0,90,0.00,,,0.01,VWS V14.01,2013-04-19 17:30:00,
2013-04-19 13:32:00,59.6,56.7,29.89,West,265,6.0,12.0,90,0.00,,,0.01,VWS V14.01,2013-04-19 17:32:00,
2013-04-19 13:37:00,58.6,56.3,29.88,WSW,242,3.0,12.0,92,0.00,,,0.01,VWS V14.01,2013-04-19 17:37:00,
2013-04-19 13:42:00,58.0,56.0,29.88,WSW,252,4.0,12.0,93,0.00,,,0.01,VWS V14.01,2013-04-19 17:42:00,
2013-04-19 13:47:00,57.7,55.7,29.88,SW,227,6.0,12.0,93,0.00,,,0.01,VWS V14.01,2013-04-19 17:47:00,
2013-04-19 13:52:00,57.5,55.5,29.87,South,181,2.0,12.0,93,0.00,,,0.01,VWS V14.01,2013-04-19 17:52:00,
2013-04-19 13:57:00,58.0,56.6,29.87,SW,227,5.0,15.0,95,0.00,,,0.01,VWS V14.01,2013-04-19 17:57:00,
2013-04-19 14:00:00,58.5,57.1,29.86,SSW,207,10.0,15.0,95,0.00,,,0.01,VWS V14.01,2013-04-19 18:00:00,
2013-04-19 14:02:00,58.5,57.1,29.86,SW,232,8.0,15.0,95,0.00,,,0.01,VWS V14.01,2013-04-19 18:02:00,
2013-04-19 14:07:00,58.9,57.5,29.86,SW,216,4.0,8.0,95,0.00,,,0.01,VWS V14.01,2013-04-19 18:07:00,
2013-04-19 14:12:00,59.5,57.8,29.86,South,191,7.0,13.0,94,0.00,,,0.01,VWS V14.01,2013-04-19 18:12:00,
2013-04-19 14:17:00,59.9,57.9,29.86,SSW,196,6.0,13.0,93,0.00,,,0.01,VWS V14.01,2013-04-19 18:17:00,
2013-04-19 14:22:00,59.8,57.5,29.86,SSW,192,6.0,13.0,92,0.00,,,0.01,VWS V14.01,2013-04-19 18:22:00,
2013-04-19 14:27:00,59.3,57.0,29.86,South,188,4.0,13.0,92,0.00,,,0.01,VWS V14.01,2013-04-19 18:27:00,
2013-04-19 14:30:00,58.7,56.4,29.85,SSW,213,2.0,13.0,92,0.00,,,0.01,VWS V14.01,2013-04-19 18:30:00,
2013-04-19 14:32:00,58.7,56.4,29.85,WSW,254,4.0,13.0,92,0.00,,,0.01,VWS V14.01,2013-04-19 18:32:00,
2013-04-19 14:37:00,58.6,56.3,29.86,SSW,213,4.0,12.0,92,0.00,,,0.01,VWS V14.01,2013-04-19 18:37:00,
2013-04-19 14:42:00,58.6,56.3,29.85,SSE,167,4.0,14.0,92,0.00,,,0.01,VWS V14.01,2013-04-19 18:42:00,
2013-04-19 14:47:00,58.6,56.6,29.85,WSW,240,4.0,15.0,93,0.00,,,0.01,VWS V14.01,2013-04-19 18:47:00,
2013-04-19 14:52:00,58.8,56.5,29.85,South,182,6.0,15.0,92,0.00,,,0.01,VWS V14.01,2013-04-19 18:52:00,
2013-04-19 14:57:00,58.7,56.4,29.85,SSW,205,7.0,15.0,92,0.00,,,0.01,VWS V14.01,2013-04-19 18:57:00,
2013-04-19 15:00:00,58.5,56.2,29.84,WSW,258,8.0,15.0,92,0.00,,,0.01,VWS V14.01,2013-04-19 19:00:00,
2013-04-19 15:02:00,58.5,56.2,29.85,SW,215,3.0,15.0,92,0.00,,,0.01,VWS V14.01,2013-04-19 19:02:00,
2013-04-19 15:07:00,58.0,55.7,29.84,SSW,198,5.0,13.0,92,0.00,,,0.01,VWS V14.01,2013-04-19 19:07:00,
2013-04-19 15:12:00,58.1,55.8,29.84,SSW,195,5.0,13.0,92,0.00,,,0.01,VWS V14.01,2013-04-19 19:12:00,
2013-04-19 15:17:00,58.6,56.3,29.84,SSW,210,6.0,14.0,92,0.00,,,0.01,VWS V14.01,2013-04-19 19:17:00,
2013-04-19 15:22:00,59.0,56.7,29.84,South,175,4.0,18.0,92,0.00,,,0.01,VWS V14.01,2013-04-19 19:22:00,
2013-04-19 15:27:00,59.1,56.8,29.83,SSW,199,7.0,18.0,92,0.00,,,0.01,VWS V14.01,2013-04-19 19:27:00,
2013-04-19 15:30:00,59.4,57.4,29.83,SW,223,6.0,18.0,93,0.00,,,0.01,VWS V14.01,2013-04-19 19:30:00,
2013-04-19 15:32:00,59.4,57.4,29.83,SSW,213,7.0,18.0,93,0.00,,,0.01,VWS V14.01,2013-04-19 19:32:00,
2013-04-19 15:37:00,59.8,57.5,29.82,SSW,207,11.0,16.0,92,0.00,,,0.01,VWS V14.01,2013-04-19 19:37:00,
2013-04-19 15:42:00,60.0,57.7,29.82,SE,146,2.0,16.0,92,0.00,,,0.01,VWS V14.01,2013-04-19 19:42:00,
2013-04-19 15:47:00,59.6,57.0,29.83,East,100,10.0,16.0,91,0.00,,,0.01,VWS V14.01,2013-04-19 19:47:00,
2013-04-19 15:52:00,59.1,56.5,29.82,South,171,3.0,16.0,91,0.00,,,0.01,VWS V14.01,2013-04-19 19:52:00,
2013-04-19 15:57:00,58.7,56.1,29.82,SW,216,0.0,16.0,91,0.00,,,0.01,VWS V14.01,2013-04-19 19:57:00,
2013-04-19 16:00:00,58.5,55.9,29.82,SW,228,2.0,16.0,91,0.00,,,0.01,VWS V14.01,2013-04-19 20:00:00,
2013-04-19 16:02:00,58.5,55.9,29.82,SW,228,2.0,16.0,91,0.00,,,0.01,VWS V14.01,2013-04-19 20:02:00,
2013-04-19 16:07:00,58.2,55.9,29.82,SSW,203,1.0,5.0,92,0.00,,,0.01,VWS V14.01,2013-04-19 20:07:00,
2013-04-19 16:12:00,58.0,55.7,29.81,SW,217,0.0,6.0,92,0.00,,,0.01,VWS V14.01,2013-04-19 20:12:00,
2013-04-19 16:17:00,58.2,56.2,29.80,SSW,194,5.0,6.0,93,0.00,,,0.01,VWS V14.01,2013-04-19 20:17:00,
2013-04-19 16:22:00,58.6,56.9,29.80,SE,132,2.0,10.0,94,0.00,,,0.01,VWS V14.01,2013-04-19 20:22:00,
2013-04-19 16:27:00,58.9,57.2,29.80,SE,132,3.0,10.0,94,0.00,,,0.01,VWS V14.01,2013-04-19 20:27:00,
2013-04-19 16:30:00,59.0,57.0,29.80,SSW,194,5.0,10.0,93,0.00,,,0.01,VWS V14.01,2013-04-19 20:30:00,
2013-04-19 16:32:00,59.0,57.0,29.80,SSW,194,5.0,10.0,93,0.00,,,0.01,VWS V14.01,2013-04-19 20:32:00,
2013-04-19 16:37:00,58.8,56.8,29.80,SE,136,5.0,11.0,93,0.00,,,0.01,VWS V14.01,2013-04-19 20:37:00,
2013-04-19 16:42:00,58.7,56.7,29.80,SSW,211,7.0,11.0,93,0.00,,,0.01,VWS V14.01,2013-04-19 20:42:00,
2013-04-19 16:47:00,58.8,56.8,29.79,WSW,244,3.0,11.0,93,0.00,,,0.01,VWS V14.01,2013-04-19 20:47:00,
2013-04-19 16:52:00,59.0,57.0,29.79,SSW,203,2.0,11.0,93,0.00,,,0.01,VWS V14.01,2013-04-19 20:52:00,
2013-04-19 16:57:00,59.1,57.1,29.79,South,190,5.0,17.0,93,0.00,,,0.01,VWS V14.01,2013-04-19 20:57:00,
2013-04-19 17:00:00,59.3,57.3,29.79,South,172,4.0,17.0,93,0.00,,,0.01,VWS V14.01,2013-04-19 21:00:00,
2013-04-19 17:02:00,59.3,57.3,29.79,South,172,4.0,17.0,93,0.00,,,0.01,VWS V14.01,2013-04-19 21:02:00,
2013-04-19 17:07:00,59.5,57.8,29.78,SSW,196,4.0,17.0,94,0.00,,,0.01,VWS V14.01,2013-04-19 21:07:00,
2013-04-19 17:12:00,59.5,57.8,29.78,South,169,10.0,17.0,94,0.00,,,0.01,VWS V14.01,2013-04-19 21:12:00,
2013-04-19 17:17:00,59.6,57.9,29.78,SSE,167,3.0,17.0,94,0.00,,,0.01,VWS V14.01,2013-04-19 21:17:00,
2013-04-19 17:22:00,59.6,57.9,29.78,South,186,5.0,17.0,94,0.00,,,0.01,VWS V14.01,2013-04-19 21:22:00,
2013-04-19 17:27:00,59.6,57.9,29.78,SW,218,7.0,18.0,94,0.00,,,0.01,VWS V14.01,2013-04-19 21:27:00,
2013-04-19 17:30:00,59.4,57.7,29.78,South,180,5.0,18.0,94,0.00,,,0.01,VWS V14.01,2013-04-19 21:30:00,
2013-04-19 17:32:00,59.4,57.7,29.78,NE,55,4.0,5.0,94,0.00,,,0.01,VWS V14.01,2013-04-19 21:32:00,
2013-04-19 17:37:00,59.2,57.8,29.78,SW,228,7.0,13.0,95,0.00,,,0.01,VWS V14.01,2013-04-19 21:37:00,
2013-04-19 17:42:00,59.3,57.9,29.77,SW,217,10.0,14.0,95,0.00,,,0.01,VWS V14.01,2013-04-19 21:42:00,
2013-04-19 17:47:00,59.3,57.9,29.77,SSW,194,4.0,15.0,95,0.00,,,0.01,VWS V14.01,2013-04-19 21:47:00,
2013-04-19 17:52:00,59.3,58.2,29.77,SSE,148,4.0,15.0,96,0.00,,,0.01,VWS V14.01,2013-04-19 21:52:00,
2013-04-19 17:57:00,59.3,57.9,29.77,South,188,7.0,18.0,95,0.00,,,0.01,VWS V14.01,2013-04-19 21:57:00,
2013-04-19 18:00:00,59.3,57.9,29.76,SW,224,14.0,18.0,95,0.00,,,0.01,VWS V14.01,2013-04-19 22:00:00,
2013-04-19 18:02:00,59.3,57.9,29.76,SW,224,14.0,18.0,95,0.00,,,0.01,VWS V14.01,2013-04-19 22:02:00,
2013-04-19 18:07:00,59.2,58.1,29.75,SSE,156,6.0,12.0,96,0.00,,,0.01,VWS V14.01,2013-04-19 22:07:00,
2013-04-19 18:12:00,59.4,58.3,29.75,South,186,5.0,13.0,96,0.00,,,0.01,VWS V14.01,2013-04-19 22:12:00,
2013-04-19 18:17:00,59.5,58.4,29.75,SE,143,10.0,13.0,96,0.00,,,0.01,VWS V14.01,2013-04-19 22:17:00,
2013-04-19 18:22:00,59.5,58.4,29.75,SE,138,6.0,18.0,96,0.00,,,0.01,VWS V14.01,2013-04-19 22:22:00,
2013-04-19 18:27:00,59.5,58.4,29.75,SSE,155,8.0,18.0,96,0.00,,,0.01,VWS V14.01,2013-04-19 22:27:00,
2013-04-19 18:30:00,59.6,58.5,29.75,South,173,16.0,20.0,96,0.00,,,0.01,VWS V14.01,2013-04-19 22:30:00,
2013-04-19 18:32:00,59.6,58.5,29.75,South,181,7.0,16.0,96,0.00,,,0.01,VWS V14.01,2013-04-19 22:32:00,
2013-04-19 18:37:00,59.6,58.5,29.75,South,179,7.0,18.0,96,0.00,,,0.01,VWS V14.01,2013-04-19 22:37:00,
2013-04-19 18:42:00,59.6,58.5,29.75,South,186,6.0,22.0,96,0.00,,,0.01,VWS V14.01,2013-04-19 22:42:00,
2013-04-19 18:47:00,59.5,58.4,29.75,SSW,203,11.0,22.0,96,0.00,,,0.01,VWS V14.01,2013-04-19 22:47:00,
2013-04-19 18:52:00,59.5,58.4,29.74,South,177,6.0,22.0,96,0.00,,,0.01,VWS V14.01,2013-04-19 22:52:00,
2013-04-19 18:57:00,59.5,58.4,29.74,SSW,205,7.0,22.0,96,0.00,,,0.01,VWS V14.01,2013-04-19 22:57:00,
2013-04-19 19:00:00,59.3,58.2,29.75,SSW,198,15.0,22.0,96,0.00,,,0.01,VWS V14.01,2013-04-19 23:00:00,
2013-04-19 19:02:00,59.3,58.2,29.75,SSW,198,15.0,22.0,96,0.00,,,0.01,VWS V14.01,2013-04-19 23:02:00,
2013-04-19 19:07:00,59.2,58.1,29.75,SSW,205,7.0,19.0,96,0.00,,,0.01,VWS V14.01,2013-04-19 23:07:00,
2013-04-19 19:12:00,59.0,57.9,29.75,South,182,8.0,19.0,96,0.00,,,0.01,VWS V14.01,2013-04-19 23:12:00,
2013-04-19 19:17:00,58.8,57.7,29.75,South,182,12.0,19.0,96,0.00,,,0.01,VWS V14.01,2013-04-19 23:17:00,
2013-04-19 19:22:00,58.7,57.6,29.75,SSW,203,11.0,19.0,96,0.00,,,0.01,VWS V14.01,2013-04-19 23:22:00,
2013-04-19 19:27:00,58.6,57.5,29.75,South,169,8.0,19.0,96,0.00,,,0.01,VWS V14.01,2013-04-19 23:27:00,
2013-04-19 19:30:00,58.6,57.5,29.75,South,170,8.0,19.0,96,0.00,,,0.01,VWS V14.01,2013-04-19 23:30:00,
2013-04-19 19:32:00,58.6,57.5,29.75,WSW,257,9.0,11.0,96,0.00,,,0.01,VWS V14.01,2013-04-19 23:32:00,
2013-04-19 19:37:00,58.6,57.8,29.75,South,173,5.0,18.0,97,0.00,,,0.01,VWS V14.01,2013-04-19 23:37:00,
2013-04-19 19:42:00,58.7,57.6,29.75,SSW,198,4.0,18.0,96,0.00,,,0.01,VWS V14.01,2013-04-19 23:42:00,
2013-04-19 19:47:00,59.0,57.9,29.75,WSW,238,8.0,21.0,96,0.00,,,0.01,VWS V14.01,2013-04-19 23:47:00,
2013-04-19 19:52:00,59.2,58.1,29.75,SSE,151,6.0,21.0,96,0.00,,,0.01,VWS V14.01,2013-04-19 23:52:00,
2013-04-19 19:57:00,59.3,58.2,29.74,South,175,9.0,21.0,96,0.00,,,0.01,VWS V14.01,2013-04-19 23:57:00,
2013-04-19 20:00:00,59.5,58.4,29.74,South,176,11.0,21.0,96,0.00,,,0.01,VWS V14.01,2013-04-20 00:00:00,
2013-04-19 20:02:00,59.5,58.4,29.74,South,176,11.0,21.0,96,0.00,,,0.01,VWS V14.01,2013-04-20 00:02:00,
2013-04-19 20:07:00,59.5,58.1,29.74,SE,137,8.0,18.0,95,0.00,,,0.01,VWS V14.01,2013-04-20 00:07:00,
2013-04-19 20:12:00,59.6,58.5,29.74,ESE,122,7.0,18.0,96,0.00,,,0.01,VWS V14.01,2013-04-20 00:12:00,
2013-04-19 20:17:00,59.6,58.5,29.74,South,182,7.0,18.0,96,0.00,,,0.01,VWS V14.01,2013-04-20 00:17:00,
2013-04-19 20:22:00,59.6,58.5,29.74,SSW,213,8.0,18.0,96,0.00,,,0.01,VWS V14.01,2013-04-20 00:22:00,
2013-04-19 20:27:00,59.6,58.5,29.74,SE,142,13.0,18.0,96,0.00,,,0.01,VWS V14.01,2013-04-20 00:27:00,
2013-04-19 20:30:00,59.5,58.4,29.74,SSW,207,6.0,18.0,96,0.00,,,0.01,VWS V14.01,2013-04-20 00:30:00,
2013-04-19 20:32:00,59.6,58.5,29.74,South,174,5.0,13.0,96,0.00,,,0.01,VWS V14.01,2013-04-20 00:32:00,
2013-04-19 20:37:00,59.5,58.4,29.74,SSW,193,5.0,15.0,96,0.00,,,0.01,VWS V14.01,2013-04-20 00:37:00,
2013-04-19 20:42:00,59.7,58.6,29.74,SW,216,7.0,21.0,96,0.00,,,0.01,VWS V14.01,2013-04-20 00:42:00,
2013-04-19 20:47:00,59.9,58.8,29.73,South,175,9.0,21.0,96,0.00,,,0.01,VWS V14.01,2013-04-20 00:47:00,
2013-04-19 20:52:00,60.0,58.9,29.73,WSW,240,10.0,21.0,96,0.00,,,0.01,VWS V14.01,2013-04-20 00:52:00,
2013-04-19 20:57:00,60.0,59.2,29.73,SSE,168,2.0,21.0,97,0.00,,,0.01,VWS V14.01,2013-04-20 00:57:00,
2013-04-19 21:00:00,60.2,59.3,29.73,South,188,6.0,21.0,97,0.00,,,0.01,VWS V14.01,2013-04-20 01:00:00,
2013-04-19 21:02:00,60.2,59.3,29.73,South,188,6.0,21.0,97,0.00,,,0.01,VWS V14.01,2013-04-20 01:02:00,
2013-04-19 21:07:00,60.2,59.3,29.73,SSW,200,7.0,21.0,97,0.00,,,0.01,VWS V14.01,2013-04-20 01:07:00,
2013-04-19 21:12:00,60.3,59.2,29.73,SSE,155,6.0,21.0,96,0.00,,,0.01,VWS V14.01,2013-04-20 01:12:00,
2013-04-19 21:17:00,60.4,59.3,29.72,SE,139,14.0,21.0,96,0.00,,,0.01,VWS V14.01,2013-04-20 01:17:00,
2013-04-19 21:22:00,60.4,59.3,29.73,SSW,202,7.0,21.0,96,0.00,,,0.01,VWS V14.01,2013-04-20 01:22:00,
2013-04-19 21:27:00,60.3,59.2,29.72,SSE,166,14.0,24.0,96,0.00,,,0.01,VWS V14.01,2013-04-20 01:27:00,
2013-04-19 21:30:00,60.2,59.1,29.72,West,264,6.0,24.0,96,0.00,,,0.01,VWS V14.01,2013-04-20 01:30:00,
2013-04-19 21:32:00,60.2,59.1,29.72,SW,232,9.0,12.0,96,0.00,,,0.01,VWS V14.01,2013-04-20 01:32:00,
2013-04-19 21:37:00,60.1,59.0,29.72,ESE,123,9.0,18.0,96,0.00,,,0.01,VWS V14.01,2013-04-20 01:37:00,
2013-04-19 21:42:00,59.9,58.8,29.72,SSE,167,10.0,29.0,96,0.00,,,0.01,VWS V14.01,2013-04-20 01:42:00,
2013-04-19 21:47:00,59.9,58.8,29.72,SW,231,8.0,29.0,96,0.00,,,0.01,VWS V14.01,2013-04-20 01:47:00,
2013-04-19 21:52:00,59.9,58.8,29.72,SSE,161,9.0,29.0,96,0.00,,,0.01,VWS V14.01,2013-04-20 01:52:00,
2013-04-19 21:57:00,59.9,58.8,29.72,SE,138,7.0,29.0,96,0.00,,,0.01,VWS V14.01,2013-04-20 01:57:00,
2013-04-19 22:00:00,60.0,59.2,29.71,SSE,157,6.0,29.0,97,0.00,,,0.01,VWS V14.01,2013-04-20 02:00:00,
2013-04-19 22:02:00,60.0,59.2,29.71,SSE,157,6.0,29.0,97,0.00,,,0.01,VWS V14.01,2013-04-20 02:02:00,
2013-04-19 22:07:00,60.0,58.9,29.71,SSW,200,6.0,19.0,96,0.00,,,0.01,VWS V14.01,2013-04-20 02:07:00,
2013-04-19 22:12:00,60.0,59.2,29.71,ESE,121,9.0,19.0,97,0.00,,,0.01,VWS V14.01,2013-04-20 02:12:00,
2013-04-19 22:17:00,60.4,59.5,29.71,South,169,10.0,21.0,97,0.00,,,0.01,VWS V14.01,2013-04-20 02:17:00,
2013-04-19 22:22:00,60.7,59.8,29.70,South,188,7.0,21.0,97,0.00,,,0.01,VWS V14.01,2013-04-20 02:22:00,
2013-04-19 22:27:00,60.7,59.8,29.70,SE,126,5.0,21.0,97,0.00,,,0.01,VWS V14.01,2013-04-20 02:27:00,
2013-04-19 22:30:00,60.7,59.6,29.70,SSW,192,9.0,24.0,96,0.00,,,0.01,VWS V14.01,2013-04-20 02:30:00,
2013-04-19 22:32:00,60.6,59.5,29.70,South,177,6.0,12.0,96,0.00,,,0.01,VWS V14.01,2013-04-20 02:32:00,
2013-04-19 22:37:00,60.7,59.8,29.70,SW,219,20.0,20.0,97,0.00,,,0.01,VWS V14.01,2013-04-20 02:37:00,
2013-04-19 22:42:00,60.8,60.0,29.69,SSW,203,15.0,29.0,97,0.00,,,0.01,VWS V14.01,2013-04-20 02:42:00,
2013-04-19 22:47:00,60.8,60.0,29.69,SSW,192,7.0,29.0,97,0.00,,,0.01,VWS V14.01,2013-04-20 02:47:00,
2013-04-19 22:52:00,61.0,60.2,29.69,South,176,6.0,29.0,97,0.00,,,0.01,VWS V14.01,2013-04-20 02:52:00,
2013-04-19 22:57:00,61.2,60.3,29.69,South,186,9.0,29.0,97,0.00,,,0.01,VWS V14.01,2013-04-20 02:57:00,
2013-04-19 23:00:00,61.4,60.5,29.69,SSW,198,10.0,29.0,97,0.00,,,0.01,VWS V14.01,2013-04-20 03:00:00,
2013-04-19 23:02:00,61.4,60.5,29.69,SSW,198,10.0,29.0,97,0.00,,,0.01,VWS V14.01,2013-04-20 03:02:00,
2013-04-19 23:07:00,61.5,60.3,29.69,SSE,161,6.0,20.0,96,0.00,,,0.01,VWS V14.01,2013-04-20 03:07:00,
2013-04-19 23:12:00,61.6,60.5,29.69,SSW,211,15.0,22.0,96,0.00,,,0.01,VWS V14.01,2013-04-20 03:12:00,
2013-04-19 23:17:00,61.8,60.7,29.69,SW,215,8.0,22.0,96,0.00,,,0.01,VWS V14.01,2013-04-20 03:17:00,
2013-04-19 23:22:00,61.8,60.7,29.69,South,191,6.0,22.0,96,0.00,,,0.01,VWS V14.01,2013-04-20 03:22:00,
2013-04-19 23:27:00,61.7,60.5,29.68,SE,144,9.0,28.0,96,0.00,,,0.01,VWS V14.01,2013-04-20 03:27:00,
2013-04-19 23:30:00,61.6,60.5,29.68,South,169,11.0,28.0,96,0.00,,,0.01,VWS V14.01,2013-04-20 03:30:00,
2013-04-19 23:32:00,61.6,60.5,29.68,SSE,164,10.0,12.0,96,0.00,,,0.01,VWS V14.01,2013-04-20 03:32:00,
2013-04-19 23:37:00,61.6,60.5,29.68,SSW,207,7.0,21.0,96,0.00,,,0.01,VWS V14.01,2013-04-20 03:37:00,
2013-04-19 23:42:00,61.6,60.5,29.68,ENE,65,17.0,21.0,96,0.00,,,0.01,VWS V14.01,2013-04-20 03:42:00,
2013-04-19 23:47:00,61.5,60.3,29.68,SSE,159,12.0,24.0,96,0.00,,,0.01,VWS V14.01,2013-04-20 03:47:00,
2013-04-19 23:52:00,61.4,60.2,29.68,South,186,10.0,24.0,96,0.00,,,0.01,VWS V14.01,2013-04-20 03:52:00,
2013-04-19 23:57:00,61.2,60.0,29.68,SSW,207,10.0,25.0,96,0.00,,,0.01,VWS V14.01,2013-04-20 03:57:00,